Terminal Aerodrome Forecast
Issued by NWS State College, PA

Home | Current Version | Previous Version | Text Only | Print | Product List | Glossary On
Versions: 1 2 3 4 5 6 7 8 9 10 11 12 13 14 15 16 17 18 19 20 21 22 23 24 25
000
FTUS41 KCTP 060538
TAFMDT
TAF
KMDT 060538Z 0606/0706 VRB03KT P6SM BKN250
     FM061200 07005KT P6SM OVC050
     FM061800 11007KT 4SM -RAPL OVC025
     FM062100 10005KT 3SM -RA BR OVC015=

USA.gov is the U.S. government's official web portal to all federal, state and local government web resources and services.